Time;durP1;ratioP1;P1;durP2;ratioP2;P2;SDS_P1;SDS_P2;PMS_P1;PMS_P2;Temp;Humidity;BMP_temperature;BMP_pressure;BME280_temperature;BME280_humidity;BME280_pressure;Samples;Min_cycle;Max_cycle;Signal;HPM_P1;HPM_P2
2024/01/21 00:02:27;;;;;;;3.00;2.53;;;23.60;49.20;;;;;;5075396;28;20539;-90
2024/01/21 00:04:53;;;;;;;5.43;2.70;;;23.60;49.10;;;;;;5075556;28;20523;-92
2024/01/21 00:07:20;;;;;;;4.00;2.30;;;23.60;49.00;;;;;;5075939;28;20723;-92
2024/01/21 00:09:47;;;;;;;3.30;2.73;;;23.60;49.10;;;;;;5075546;28;20437;-91
2024/01/21 00:12:14;;;;;;;3.70;2.40;;;23.50;49.00;;;;;;5075205;28;20575;-91
2024/01/21 00:14:41;;;;;;;3.83;2.40;;;23.50;48.90;;;;;;5074680;28;21029;-91
2024/01/21 00:17:09;;;;;;;3.33;2.57;;;23.50;48.90;;;;;;5075509;28;20535;-90
2024/01/21 00:19:36;;;;;;;2.53;2.30;;;23.50;48.80;;;;;;5075127;28;20441;-92
2024/01/21 00:22:03;;;;;;;3.10;2.53;;;23.50;48.80;;;;;;5075135;28;20443;-90
2024/01/21 00:24:30;;;;;;;3.10;2.20;;;23.50;48.70;;;;;;5075285;28;20436;-91
2024/01/21 00:26:57;;;;;;;3.13;2.40;;;23.50;48.80;;;;;;5074900;28;20479;-91
2024/01/21 00:29:24;;;;;;;2.67;2.23;;;23.50;48.70;;;;;;5074938;28;20440;-91
2024/01/21 00:31:51;;;;;;;2.40;2.10;;;23.50;48.70;;;;;;5075128;28;20476;-91
2024/01/21 00:34:19;;;;;;;3.07;1.90;;;23.50;48.70;;;;;;5074951;28;20458;-91
2024/01/21 00:36:46;;;;;;;2.83;1.97;;;23.50;48.60;;;;;;5075435;28;20444;-91
2024/01/21 00:39:13;;;;;;;3.10;2.37;;;23.50;48.60;;;;;;5074731;28;20441;-90
2024/01/21 00:41:39;;;;;;;3.70;2.50;;;23.50;48.50;;;;;;5074135;28;20531;-92
2024/01/21 00:44:07;;;;;;;3.63;2.53;;;23.50;48.50;;;;;;5074130;28;20448;-90
2024/01/21 00:46:34;;;;;;;2.70;2.10;;;23.50;49.10;;;;;;5075140;28;20444;-90
2024/01/21 00:49:01;;;;;;;2.73;1.90;;;23.50;48.50;;;;;;5075169;28;20449;-90
2024/01/21 00:51:29;;;;;;;2.30;1.87;;;23.50;48.40;;;;;;5075118;28;20836;-90
2024/01/21 00:53:56;;;;;;;2.93;2.13;;;23.50;48.40;;;;;;5075186;28;20463;-90
2024/01/21 00:56:23;;;;;;;3.20;2.13;;;23.50;48.40;;;;;;5076043;28;20778;-90
2024/01/21 00:58:49;;;;;;;2.57;2.10;;;23.60;48.40;;;;;;5078040;28;20463;-89
2024/01/21 01:01:16;;;;;;;2.20;1.70;;;23.50;48.30;;;;;;5098452;28;20461;-89
2024/01/21 01:03:44;;;;;;;2.17;1.93;;;23.50;48.90;;;;;;5098331;28;20417;-91
2024/01/21 01:06:11;;;;;;;2.73;2.20;;;23.60;48.30;;;;;;5074695;28;20455;-90
2024/01/21 01:08:39;;;;;;;2.50;1.87;;;23.50;48.20;;;;;;5074207;28;20443;-92
2024/01/21 01:11:06;;;;;;;3.40;2.00;;;23.50;48.30;;;;;;5074577;28;20540;-91
2024/01/21 01:13:33;;;;;;;2.27;1.97;;;23.50;48.30;;;;;;5074131;28;20484;-91
2024/01/21 01:16:00;;;;;;;2.20;1.83;;;23.50;48.20;;;;;;5074008;28;20436;-90
2024/01/21 01:18:26;;;;;;;2.97;1.80;;;23.50;48.30;;;;;;5074096;28;20487;-91
2024/01/21 01:20:54;;;;;;;3.37;2.50;;;23.50;48.20;;;;;;5074146;28;20531;-92
2024/01/21 01:23:21;;;;;;;3.03;2.10;;;23.50;48.10;;;;;;5073894;28;20808;-91
2024/01/21 01:25:50;;;;;;;2.67;2.10;;;23.40;48.00;;;;;;5072703;28;20463;-93
2024/01/21 01:28:16;;;;;;;2.67;1.97;;;23.50;48.10;;;;;;5072984;28;20812;-90
2024/01/21 01:30:44;;;;;;;1.90;1.57;;;23.50;48.00;;;;;;5073130;28;20526;-90
2024/01/21 01:33:11;;;;;;;3.50;1.87;;;23.40;48.00;;;;;;5073151;28;20911;-91
2024/01/21 01:35:37;;;;;;;2.03;1.67;;;23.40;47.90;;;;;;5072072;28;20444;-90
2024/01/21 01:38:06;;;;;;;2.20;1.60;;;23.40;47.90;;;;;;5073379;28;20437;-90
2024/01/21 01:40:32;;;;;;;2.20;1.90;;;23.40;47.90;;;;;;5073366;28;20445;-89
2024/01/21 01:43:02;;;;;;;2.30;2.00;;;23.40;47.90;;;;;;5073592;28;20445;-89
2024/01/21 01:45:29;;;;;;;1.90;1.70;;;23.40;47.90;;;;;;5073813;28;20444;-90
2024/01/21 01:47:57;;;;;;;3.10;2.17;;;23.40;47.90;;;;;;5086987;28;20487;-89
2024/01/21 01:50:25;;;;;;;2.13;1.60;;;23.40;47.90;;;;;;5097900;28;20442;-90
2024/01/21 01:52:53;;;;;;;2.13;1.80;;;23.40;47.90;;;;;;5101360;28;20479;-90
2024/01/21 01:55:20;;;;;;;2.40;1.70;;;23.40;47.80;;;;;;5092207;28;20879;-89
2024/01/21 01:57:47;;;;;;;2.27;1.73;;;23.40;47.90;;;;;;5079015;28;20446;-91
2024/01/21 02:00:16;;;;;;;2.73;1.70;;;23.40;48.00;;;;;;5079098;28;20451;-92
2024/01/21 02:02:43;;;;;;;2.37;1.90;;;23.40;48.00;;;;;;5077909;28;20790;-91
2024/01/21 02:05:10;;;;;;;2.10;1.83;;;23.40;47.90;;;;;;5077340;28;20443;-91
2024/01/21 02:07:37;;;;;;;2.47;1.73;;;23.30;47.70;;;;;;5077315;28;20444;-91
2024/01/21 02:10:05;;;;;;;2.20;1.60;;;23.40;47.80;;;;;;5077361;28;20447;-91
2024/01/21 02:12:32;;;;;;;3.23;1.77;;;23.40;47.80;;;;;;5077157;28;20839;-92
2024/01/21 02:14:59;;;;;;;2.30;1.90;;;23.40;47.80;;;;;;5077305;28;20446;-91
2024/01/21 02:17:28;;;;;;;2.30;1.60;;;23.40;47.80;;;;;;5077166;28;20444;-91
2024/01/21 02:19:54;;;;;;;2.70;1.83;;;23.30;47.70;;;;;;5077068;28;20447;-91
2024/01/21 02:22:25;;;;;;;2.07;1.63;;;23.40;47.80;;;;;;5077022;28;20471;-91
2024/01/21 02:24:53;;;;;;;2.50;2.00;;;23.30;47.50;;;;;;5077112;28;20447;-90
2024/01/21 02:27:20;;;;;;;2.83;1.30;;;23.40;48.30;;;;;;5076599;28;20438;-89
2024/01/21 02:29:46;;;;;;;2.50;1.63;;;23.40;47.60;;;;;;5076459;28;20468;-90
2024/01/21 02:32:13;;;;;;;2.83;1.93;;;23.30;47.70;;;;;;5076386;28;21049;-90
2024/01/21 02:34:40;;;;;;;1.70;1.30;;;23.30;47.70;;;;;;5077046;28;20441;-91
2024/01/21 02:37:07;;;;;;;2.23;1.70;;;23.30;48.30;;;;;;5076983;28;20436;-90
2024/01/21 02:39:34;;;;;;;2.80;1.37;;;23.30;47.70;;;;;;5076574;28;20982;-90
2024/01/21 02:42:02;;;;;;;2.40;1.50;;;23.30;47.60;;;;;;5076743;28;20444;-90
2024/01/21 02:44:29;;;;;;;2.37;1.40;;;23.30;47.60;;;;;;5076631;28;20440;-90
2024/01/21 02:46:56;;;;;;;2.90;1.40;;;23.40;47.60;;;;;;5076437;28;20455;-90
2024/01/21 02:49:24;;;;;;;1.90;1.37;;;23.40;47.60;;;;;;5078216;28;20467;-91
2024/01/21 02:51:51;;;;;;;1.80;1.33;;;23.40;47.50;;;;;;5078852;28;20444;-92
2024/01/21 02:54:18;;;;;;;2.40;1.83;;;23.30;47.50;;;;;;5077208;28;20524;-92
2024/01/21 02:56:44;;;;;;;1.80;1.30;;;23.30;47.70;;;;;;5076790;28;20440;-91
2024/01/21 02:59:13;;;;;;;1.70;1.30;;;23.30;47.60;;;;;;5076847;28;20521;-93
2024/01/21 03:01:40;;;;;;;1.90;1.40;;;23.30;47.60;;;;;;5076423;28;20459;-91
2024/01/21 03:04:11;;;;;;;1.80;1.30;;;23.30;47.50;;;;;;5078283;28;20472;-91
2024/01/21 03:06:38;;;;;;;2.27;1.70;;;23.30;48.10;;;;;;5076716;28;20432;-91
2024/01/21 03:09:05;;;;;;;2.03;1.60;;;23.30;47.40;;;;;;5076765;28;20803;-91
2024/01/21 03:11:33;;;;;;;1.80;1.30;;;23.30;47.50;;;;;;5076381;28;20528;-90
2024/01/21 03:14:00;;;;;;;2.20;1.40;;;23.30;47.50;;;;;;5076098;28;20486;-90
2024/01/21 03:16:28;;;;;;;1.90;1.40;;;23.30;47.40;;;;;;5075598;28;20484;-91
2024/01/21 03:18:55;;;;;;;1.93;1.50;;;23.30;47.50;;;;;;5076415;28;20523;-90
2024/01/21 03:21:22;;;;;;;1.70;1.30;;;23.40;47.50;;;;;;5076090;28;20452;-90
2024/01/21 03:23:49;;;;;;;2.10;1.50;;;23.30;47.90;;;;;;5076081;28;20506;-91
2024/01/21 03:26:16;;;;;;;1.60;1.20;;;23.30;47.40;;;;;;5076845;28;20468;-90
2024/01/21 03:28:42;;;;;;;1.97;1.53;;;23.30;47.30;;;;;;5075960;28;20448;-92
2024/01/21 03:31:09;;;;;;;1.97;1.57;;;23.30;47.40;;;;;;5075720;28;20494;-90
2024/01/21 03:33:39;;;;;;;2.30;1.40;;;23.30;47.40;;;;;;5076157;28;20483;-91
2024/01/21 03:36:06;;;;;;;2.30;1.40;;;23.30;47.40;;;;;;5075972;28;20464;-90
2024/01/21 03:38:33;;;;;;;2.43;1.50;;;23.30;47.30;;;;;;5076302;28;20812;-90
2024/01/21 03:41:00;;;;;;;1.93;1.30;;;23.30;47.30;;;;;;5075739;28;20531;-91
2024/01/21 03:43:27;;;;;;;2.20;1.50;;;23.30;47.30;;;;;;5075704;28;20476;-90
2024/01/21 03:45:54;;;;;;;1.77;1.40;;;23.30;47.20;;;;;;5075671;28;20440;-91
2024/01/21 03:48:21;;;;;;;1.70;1.20;;;23.30;47.40;;;;;;5075965;28;20435;-90
2024/01/21 03:50:50;;;;;;;1.80;1.40;;;23.30;47.40;;;;;;5075959;28;20444;-92
2024/01/21 03:53:17;;;;;;;1.80;1.20;;;23.30;47.30;;;;;;5075518;28;20488;-91
2024/01/21 03:55:44;;;;;;;2.10;1.30;;;23.30;47.30;;;;;;5075685;28;20442;-91
2024/01/21 03:58:10;;;;;;;3.03;1.40;;;23.30;47.30;;;;;;5075462;28;21002;-91
2024/01/21 04:00:37;;;;;;;1.90;1.40;;;23.40;47.40;;;;;;5075499;28;20465;-91
2024/01/21 04:03:04;;;;;;;1.87;1.53;;;23.30;47.20;;;;;;5076002;28;20535;-91
2024/01/21 04:05:31;;;;;;;2.30;1.23;;;23.30;47.20;;;;;;5077951;28;20881;-91
2024/01/21 04:08:00;;;;;;;1.97;1.33;;;23.30;47.30;;;;;;5099421;28;20431;-89
2024/01/21 04:10:26;;;;;;;1.80;1.33;;;23.30;47.30;;;;;;5099827;28;20425;-90
2024/01/21 04:12:53;;;;;;;2.00;1.73;;;23.30;47.20;;;;;;5076218;28;20484;-90
2024/01/21 04:15:20;;;;;;;1.67;1.30;;;23.30;47.20;;;;;;5074552;28;21400;-90
2024/01/21 04:17:47;;;;;;;1.80;1.13;;;23.20;47.10;;;;;;5075347;28;20506;-90
2024/01/21 04:20:14;;;;;;;1.67;1.17;;;23.20;47.20;;;;;;5075453;28;20447;-91
2024/01/21 04:22:40;;;;;;;1.70;1.20;;;23.30;47.20;;;;;;5075191;28;20433;-90
2024/01/21 04:25:09;;;;;;;1.83;1.30;;;23.20;47.30;;;;;;5075063;28;20436;-90
2024/01/21 04:27:36;;;;;;;2.03;1.67;;;23.20;47.40;;;;;;5075199;28;20448;-90
2024/01/21 04:30:03;;;;;;;2.00;1.43;;;23.20;47.20;;;;;;5075363;28;20793;-90
2024/01/21 04:32:30;;;;;;;2.20;1.70;;;23.20;47.20;;;;;;5074879;28;20432;-91
2024/01/21 04:34:57;;;;;;;1.70;1.37;;;23.20;47.10;;;;;;5075333;28;20467;-90
2024/01/21 04:37:24;;;;;;;1.70;1.37;;;23.20;47.10;;;;;;5075641;28;20498;-91
2024/01/21 04:39:51;;;;;;;1.60;1.30;;;23.20;47.10;;;;;;5075669;28;20476;-90
2024/01/21 04:42:19;;;;;;;2.00;1.43;;;23.20;47.20;;;;;;5075125;28;20540;-91
2024/01/21 04:44:46;;;;;;;1.80;1.30;;;23.30;47.20;;;;;;5075549;28;20849;-90
2024/01/21 04:47:13;;;;;;;1.70;1.30;;;23.20;47.10;;;;;;5075051;28;20952;-90
2024/01/21 04:49:40;;;;;;;1.87;1.43;;;23.20;47.10;;;;;;5074894;28;20445;-90
2024/01/21 04:52:07;;;;;;;1.87;1.50;;;23.30;47.10;;;;;;5074717;28;20543;-91
2024/01/21 04:54:34;;;;;;;2.00;1.30;;;23.20;47.00;;;;;;5074519;28;20483;-90
2024/01/21 04:57:00;;;;;;;1.90;1.50;;;23.20;47.00;;;;;;5075121;28;20523;-90
2024/01/21 04:59:29;;;;;;;1.73;1.10;;;23.20;47.00;;;;;;5074749;28;20447;-90
2024/01/21 05:01:55;;;;;;;1.80;1.20;;;23.30;47.20;;;;;;5074444;28;20462;-90
2024/01/21 05:04:22;;;;;;;1.80;1.33;;;23.30;47.10;;;;;;5074412;28;20531;-90
2024/01/21 05:06:49;;;;;;;2.10;1.23;;;23.30;47.00;;;;;;5075031;28;20544;-90
2024/01/21 05:09:16;;;;;;;1.77;1.20;;;23.30;47.00;;;;;;5074652;28;20444;-91
2024/01/21 05:11:43;;;;;;;1.70;1.13;;;23.30;46.90;;;;;;5074661;28;20452;-90
2024/01/21 05:14:11;;;;;;;2.23;1.23;;;23.30;47.00;;;;;;5074401;28;20516;-90
2024/01/21 05:16:41;;;;;;;1.90;1.27;;;23.30;47.00;;;;;;5074509;28;20472;-92
2024/01/21 05:19:08;;;;;;;1.67;1.27;;;23.30;46.90;;;;;;5075352;28;20471;-90
2024/01/21 05:21:34;;;;;;;1.80;1.20;;;23.30;46.80;;;;;;5074281;28;20539;-90
2024/01/21 05:24:01;;;;;;;1.70;1.30;;;23.30;46.80;;;;;;5074264;28;20440;-90
2024/01/21 05:26:28;;;;;;;2.00;1.30;;;23.30;46.80;;;;;;5074545;28;20448;-90
2024/01/21 05:28:59;;;;;;;2.07;1.50;;;23.40;47.00;;;;;;5074094;28;20528;-91
2024/01/21 05:31:28;;;;;;;2.03;1.50;;;23.30;46.90;;;;;;5073880;28;20476;-92
2024/01/21 05:33:56;;;;;;;1.90;1.30;;;23.30;46.90;;;;;;5074093;28;20537;-91
2024/01/21 05:36:23;;;;;;;1.57;1.10;;;23.30;46.90;;;;;;5074261;28;20927;-92
2024/01/21 05:38:50;;;;;;;2.50;1.50;;;23.30;46.90;;;;;;5074220;28;20539;-92
2024/01/21 05:41:17;;;;;;;1.77;1.13;;;23.30;46.70;;;;;;5074360;28;20444;-91
2024/01/21 05:43:44;;;;;;;1.80;1.40;;;23.30;46.70;;;;;;5074231;28;20459;-91
2024/01/21 05:46:11;;;;;;;2.17;1.43;;;23.30;46.80;;;;;;5074542;28;20812;-92
2024/01/21 05:48:38;;;;;;;1.63;1.20;;;23.30;46.70;;;;;;5075405;28;20440;-93
2024/01/21 05:51:06;;;;;;;1.60;1.20;;;23.30;46.70;;;;;;5073710;28;20523;-92
2024/01/21 05:53:33;;;;;;;1.67;1.10;;;23.30;46.80;;;;;;5074033;28;20508;-91
2024/01/21 05:56:00;;;;;;;1.57;1.30;;;23.30;46.90;;;;;;5074014;28;20445;-91
2024/01/21 05:58:27;;;;;;;1.60;1.20;;;23.30;46.70;;;;;;5073965;28;20935;-91
2024/01/21 06:00:54;;;;;;;1.60;1.10;;;23.30;46.60;;;;;;5056239;28;20475;-91
2024/01/21 06:03:21;;;;;;;1.63;1.23;;;23.30;46.70;;;;;;5073664;28;20881;-91
2024/01/21 06:05:47;;;;;;;2.10;1.30;;;23.30;46.60;;;;;;5074080;28;20448;-91
2024/01/21 06:08:16;;;;;;;1.90;1.20;;;23.30;46.70;;;;;;5075364;28;20440;-91
2024/01/21 06:10:43;;;;;;;1.97;1.30;;;23.30;46.60;;;;;;5074551;28;20443;-91
2024/01/21 06:13:10;;;;;;;1.57;1.10;;;23.30;46.60;;;;;;5077908;28;20484;-92
2024/01/21 06:15:37;;;;;;;2.03;1.27;;;23.40;46.80;;;;;;5077571;28;20448;-91
2024/01/21 06:18:05;;;;;;;6.60;1.40;;;23.30;46.60;;;;;;5078047;28;20531;-92
2024/01/21 06:20:33;;;;;;;1.80;1.20;;;23.30;46.60;;;;;;5076761;28;20527;-90
2024/01/21 06:23:01;;;;;;;1.60;1.10;;;23.30;46.60;;;;;;5077393;28;20456;-92
2024/01/21 06:25:32;;;;;;;1.60;1.03;;;23.30;46.50;;;;;;5077276;28;20440;-92
2024/01/21 06:27:59;;;;;;;1.50;1.10;;;23.30;46.60;;;;;;5078374;28;20435;-91
2024/01/21 06:30:26;;;;;;;1.70;1.07;;;23.30;46.60;;;;;;5078492;28;20484;-92
2024/01/21 06:32:53;;;;;;;1.97;1.00;;;23.30;46.60;;;;;;5077969;28;20536;-89
2024/01/21 06:35:21;;;;;;;2.30;1.37;;;23.30;46.70;;;;;;5080143;28;20452;-89
2024/01/21 06:37:48;;;;;;;1.73;1.30;;;23.30;46.60;;;;;;5098720;28;20492;-89
2024/01/21 06:40:15;;;;;;;1.70;1.20;;;23.30;46.50;;;;;;5101166;28;20443;-90
2024/01/21 06:42:44;;;;;;;2.00;1.20;;;23.30;47.00;;;;;;5101046;28;20447;-89
2024/01/21 06:45:12;;;;;;;2.00;1.30;;;23.30;46.50;;;;;;5079827;28;20807;-89
2024/01/21 06:47:39;;;;;;;1.90;1.47;;;23.30;46.40;;;;;;5079467;28;20443;-92
2024/01/21 06:50:09;;;;;;;1.60;1.10;;;23.40;46.70;;;;;;5079034;28;20529;-90
2024/01/21 06:52:36;;;;;;;1.90;1.23;;;23.30;46.60;;;;;;5078198;28;20441;-90
2024/01/21 06:55:03;;;;;;;1.80;1.23;;;23.30;46.40;;;;;;5077171;28;20821;-91
2024/01/21 06:57:30;;;;;;;1.60;1.07;;;23.30;46.50;;;;;;5076625;28;20448;-91
2024/01/21 06:59:58;;;;;;;1.90;1.30;;;23.30;46.40;;;;;;5076359;28;20444;-90
2024/01/21 07:02:25;;;;;;;2.27;1.30;;;23.30;46.40;;;;;;5076808;28;20804;-90
2024/01/21 07:04:52;;;;;;;2.20;1.30;;;23.30;46.40;;;;;;5077033;28;20521;-91
2024/01/21 07:07:18;;;;;;;1.70;1.20;;;23.30;46.40;;;;;;5076864;28;20527;-91
2024/01/21 07:09:45;;;;;;;1.87;1.20;;;23.40;46.50;;;;;;5076654;28;20442;-90
2024/01/21 07:12:13;;;;;;;1.60;1.20;;;23.30;46.40;;;;;;5076915;28;20466;-90
2024/01/21 07:14:40;;;;;;;1.70;1.47;;;23.30;46.50;;;;;;5090055;28;20495;-89
2024/01/21 07:17:08;;;;;;;1.90;1.30;;;23.30;46.40;;;;;;5099005;28;20459;-90
2024/01/21 07:19:35;;;;;;;1.77;1.30;;;23.30;46.30;;;;;;5089978;28;20447;-90
2024/01/21 07:22:02;;;;;;;2.00;1.30;;;23.30;46.40;;;;;;5076375;28;20535;-90
2024/01/21 07:24:29;;;;;;;1.70;1.10;;;23.40;46.60;;;;;;5076520;28;20446;-91
2024/01/21 07:26:55;;;;;;;1.80;1.23;;;23.30;46.50;;;;;;5076924;28;20801;-91
2024/01/21 07:29:22;;;;;;;1.60;1.10;;;23.30;46.30;;;;;;5076137;28;20447;-90
2024/01/21 07:31:50;;;;;;;1.60;1.17;;;23.30;46.40;;;;;;5075927;28;20470;-90
2024/01/21 07:34:18;;;;;;;1.63;1.23;;;23.30;46.90;;;;;;5076411;28;20562;-92
2024/01/21 07:36:45;;;;;;;2.40;1.33;;;23.30;46.30;;;;;;5075751;28;20444;-90
2024/01/21 07:39:12;;;;;;;1.70;1.10;;;23.30;46.30;;;;;;5076293;28;20433;-90
2024/01/21 07:41:39;;;;;;;2.17;1.10;;;23.30;47.00;;;;;;5057703;28;20445;-90
2024/01/21 07:44:06;;;;;;;1.90;1.47;;;23.30;46.30;;;;;;5076279;28;20531;-90
2024/01/21 07:46:32;;;;;;;1.87;1.30;;;23.30;46.40;;;;;;5075678;28;20543;-91
2024/01/21 07:48:59;;;;;;;1.63;1.17;;;23.30;46.30;;;;;;5075828;28;20527;-90
2024/01/21 07:51:28;;;;;;;1.70;1.10;;;23.30;46.30;;;;;;5075507;28;20476;-90
2024/01/21 07:53:55;;;;;;;2.20;1.70;;;23.30;46.30;;;;;;5075754;28;20476;-90
2024/01/21 07:56:22;;;;;;;1.60;1.30;;;23.30;46.30;;;;;;5075573;28;20483;-91
2024/01/21 07:58:48;;;;;;;1.60;1.20;;;23.30;46.80;;;;;;5075319;28;20472;-91
2024/01/21 08:01:20;;;;;;;2.20;1.50;;;23.40;46.40;;;;;;5075406;28;20551;-90
2024/01/21 08:03:47;;;;;;;1.90;1.20;;;23.30;46.30;;;;;;5075722;28;20448;-90
2024/01/21 08:06:14;;;;;;;2.23;1.27;;;23.30;46.30;;;;;;5075307;28;20447;-90
2024/01/21 08:08:42;;;;;;;1.90;1.40;;;23.50;46.50;;;;;;5075044;28;20424;-90
2024/01/21 08:11:09;;;;;;;2.00;1.50;;;23.40;46.30;;;;;;5075203;28;20813;-91
2024/01/21 08:13:36;;;;;;;1.90;1.30;;;23.40;46.30;;;;;;5075021;28;20436;-92
2024/01/21 08:16:02;;;;;;;1.80;1.30;;;23.40;46.30;;;;;;5075106;28;20451;-89
2024/01/21 08:18:29;;;;;;;1.80;1.23;;;23.40;46.30;;;;;;5074419;28;20452;-92
2024/01/21 08:20:56;;;;;;;1.70;1.30;;;23.40;46.40;;;;;;5073526;28;20816;-89
2024/01/21 08:23:24;;;;;;;2.23;1.67;;;23.40;46.30;;;;;;5073412;28;20535;-90
2024/01/21 08:25:53;;;;;;;2.93;1.37;;;23.50;46.30;;;;;;5073202;28;20820;-89
2024/01/21 08:28:20;;;;;;;1.70;1.40;;;23.40;46.20;;;;;;5073240;28;20480;-89
2024/01/21 08:30:47;;;;;;;2.10;1.53;;;23.40;46.10;;;;;;5072566;28;20480;-90
2024/01/21 08:33:13;;;;;;;1.97;1.33;;;23.40;46.10;;;;;;5072827;28;20445;-88
2024/01/21 08:35:40;;;;;;;4.70;1.83;;;23.40;46.10;;;;;;5071023;28;20818;-89
2024/01/21 08:38:07;;;;;;;1.83;1.20;;;23.50;45.80;;;;;;5074214;28;20452;-89
2024/01/21 08:40:36;;;;;;;3.27;1.37;;;23.40;45.80;;;;;;5074210;28;20440;-90
2024/01/21 08:43:04;;;;;;;1.80;1.43;;;23.40;46.20;;;;;;5074242;28;20468;-89
2024/01/21 08:45:31;;;;;;;1.90;1.40;;;23.40;46.20;;;;;;5074376;28;20441;-90
2024/01/21 08:47:58;;;;;;;2.47;1.60;;;23.40;46.20;;;;;;5074381;28;20437;-89
2024/01/21 08:50:25;;;;;;;2.17;1.40;;;23.50;46.40;;;;;;5074712;28;20449;-89
2024/01/21 08:52:53;;;;;;;2.77;1.37;;;23.50;46.40;;;;;;5082389;28;20449;-89
2024/01/21 08:55:23;;;;;;;2.40;1.27;;;23.60;46.50;;;;;;5074264;28;20566;-89
2024/01/21 08:57:50;;;;;;;2.00;1.43;;;23.50;46.30;;;;;;5074862;28;20451;-88
2024/01/21 09:00:19;;;;;;;1.77;1.33;;;23.50;46.40;;;;;;5072069;28;20559;-90
2024/01/21 09:02:46;;;;;;;3.37;1.33;;;23.50;45.90;;;;;;5073380;28;20440;-88
2024/01/21 09:05:13;;;;;;;1.83;1.33;;;23.50;46.30;;;;;;5073248;28;20448;-88
2024/01/21 09:07:40;;;;;;;2.10;1.50;;;23.50;46.40;;;;;;5072723;28;20471;-90
2024/01/21 09:10:08;;;;;;;1.80;1.30;;;23.40;46.40;;;;;;5073008;28;20527;-89
2024/01/21 09:12:35;;;;;;;2.60;1.37;;;23.50;46.60;;;;;;5073779;28;20440;-88
2024/01/21 09:15:02;;;;;;;2.67;1.40;;;23.50;46.60;;;;;;5073857;28;20484;-88
2024/01/21 09:17:31;;;;;;;2.20;2.00;;;23.50;46.70;;;;;;5074001;28;20478;-89
2024/01/21 09:19:57;;;;;;;3.40;1.60;;;23.50;46.60;;;;;;5073921;28;20965;-88
2024/01/21 09:22:24;;;;;;;4.40;1.27;;;23.50;46.60;;;;;;5073635;28;20440;-88
2024/01/21 09:24:51;;;;;;;4.10;1.97;;;23.60;46.70;;;;;;5073481;28;20448;-88
2024/01/21 09:27:18;;;;;;;2.40;1.50;;;23.50;46.70;;;;;;5073502;28;20961;-88
2024/01/21 09:29:45;;;;;;;3.37;1.43;;;23.50;46.80;;;;;;5073481;28;20476;-90
2024/01/21 09:32:12;;;;;;;5.90;1.73;;;23.60;46.70;;;;;;5073620;28;20443;-83
2024/01/21 09:34:40;;;;;;;5.50;1.73;;;23.50;46.60;;;;;;5073672;28;21021;-88
2024/01/21 09:37:07;;;;;;;1.67;1.40;;;23.60;46.40;;;;;;5073663;28;20436;-88
2024/01/21 09:39:34;;;;;;;2.57;1.50;;;23.60;46.60;;;;;;5073492;28;20432;-89
2024/01/21 09:42:01;;;;;;;6.10;1.80;;;23.60;46.80;;;;;;5073837;28;20523;-90
2024/01/21 09:44:29;;;;;;;3.10;2.00;;;23.60;47.20;;;;;;5073581;28;20440;-88
2024/01/21 09:46:58;;;;;;;2.70;1.50;;;23.60;46.50;;;;;;5073628;28;20449;-89
2024/01/21 09:49:25;;;;;;;4.63;1.80;;;23.60;46.50;;;;;;5073802;28;20440;-89
2024/01/21 09:51:57;;;;;;;2.87;1.30;;;23.60;47.00;;;;;;5073229;28;20433;-88
2024/01/21 09:54:26;;;;;;;2.57;1.63;;;23.60;46.50;;;;;;5073143;28;20495;-89
2024/01/21 09:56:52;;;;;;;4.80;1.50;;;23.60;46.50;;;;;;5073824;28;20444;-89
2024/01/21 09:59:19;;;;;;;2.77;1.93;;;23.60;46.40;;;;;;5073886;28;20463;-89
2024/01/21 10:01:47;;;;;;;2.37;1.40;;;23.60;46.30;;;;;;5074011;28;20468;-88
2024/01/21 10:04:15;;;;;;;3.67;1.90;;;23.60;46.40;;;;;;5073870;28;20448;-89
2024/01/21 10:06:43;;;;;;;4.10;1.70;;;23.60;46.40;;;;;;5073809;28;20441;-89
2024/01/21 10:09:16;;;;;;;1.80;1.40;;;23.60;46.40;;;;;;5073553;28;20440;-89
2024/01/21 10:11:43;;;;;;;3.13;1.70;;;23.60;46.40;;;;;;5073602;28;20648;-88
2024/01/21 10:14:10;;;;;;;4.10;1.47;;;23.60;46.40;;;;;;5077815;28;20935;-89
2024/01/21 10:16:42;;;;;;;3.80;1.60;;;23.60;46.40;;;;;;5077042;28;20444;-88
2024/01/21 10:19:13;;;;;;;5.03;1.60;;;23.60;46.40;;;;;;5078287;28;20429;-88
2024/01/21 10:21:39;;;;;;;1.93;1.60;;;23.60;46.40;;;;;;5077174;28;20447;-89
2024/01/21 10:24:08;;;;;;;1.80;1.33;;;23.60;46.40;;;;;;5090420;28;20470;-86
2024/01/21 10:26:37;;;;;;;1.90;1.40;;;23.60;46.40;;;;;;5101582;28;20463;-88
2024/01/21 10:29:04;;;;;;;2.57;1.80;;;23.60;46.40;;;;;;5094388;28;20437;-88
2024/01/21 10:31:36;;;;;;;2.80;1.33;;;23.60;46.50;;;;;;5082081;28;20482;-89
2024/01/21 10:34:03;;;;;;;2.63;1.80;;;23.50;46.40;;;;;;5081741;28;20440;-88
2024/01/21 10:36:33;;;;;;;3.43;1.47;;;23.60;46.50;;;;;;5078341;28;20484;-89
2024/01/21 10:39:04;;;;;;;2.07;1.33;;;23.60;46.50;;;;;;5077012;28;20565;-89
2024/01/21 10:41:32;;;;;;;4.03;1.53;;;23.60;46.50;;;;;;5076764;28;20927;-89
2024/01/21 10:44:02;;;;;;;2.80;1.50;;;23.60;46.50;;;;;;5076852;28;20451;-89
2024/01/21 10:46:32;;;;;;;2.10;1.43;;;23.60;46.50;;;;;;5076708;28;20436;-89
2024/01/21 10:48:59;;;;;;;2.50;1.60;;;23.60;46.50;;;;;;5076482;28;20432;-90
2024/01/21 10:51:27;;;;;;;3.20;1.80;;;23.60;46.40;;;;;;5076578;28;20452;-91
2024/01/21 10:53:54;;;;;;;3.80;1.50;;;23.70;46.60;;;;;;5076748;28;20448;-89
2024/01/21 10:56:23;;;;;;;1.70;1.40;;;23.60;46.60;;;;;;5076812;28;20506;-89
2024/01/21 10:58:50;;;;;;;4.50;1.57;;;23.60;46.50;;;;;;5076885;28;20835;-88
2024/01/21 11:01:20;;;;;;;2.23;1.43;;;23.60;46.60;;;;;;5076060;28;20468;-91
2024/01/21 11:03:48;;;;;;;2.43;1.60;;;23.60;46.60;;;;;;5076424;28;20441;-89
2024/01/21 11:06:16;;;;;;;1.80;1.30;;;23.60;46.50;;;;;;5076403;28;20448;-89
2024/01/21 11:08:44;;;;;;;2.00;1.50;;;23.60;46.60;;;;;;5076504;28;20459;-88
2024/01/21 11:11:20;;;;;;;1.70;1.40;;;23.60;46.60;;;;;;5076498;28;20451;-88
2024/01/21 11:13:48;;;;;;;1.90;1.40;;;23.60;46.60;;;;;;5076762;28;20448;-90
2024/01/21 11:16:36;;;;;;;2.20;1.50;;;23.60;46.60;;;;;;5076019;28;20487;-89
2024/01/21 11:19:05;;;;;;;2.47;1.83;;;23.60;46.50;;;;;;5075955;28;20787;-89
2024/01/21 11:21:32;;;;;;;1.70;1.33;;;23.60;46.60;;;;;;5075986;28;20440;-89
2024/01/21 11:24:00;;;;;;;2.00;1.60;;;23.60;46.60;;;;;;5075656;28;20447;-90
2024/01/21 11:26:29;;;;;;;2.33;1.40;;;23.60;46.60;;;;;;5076218;28;20934;-88
2024/01/21 11:28:58;;;;;;;6.77;1.63;;;23.60;46.60;;;;;;5084410;28;20512;-88
2024/01/21 11:31:28;;;;;;;2.43;1.63;;;23.60;46.60;;;;;;5098588;28;20456;-89
2024/01/21 11:34:05;;;;;;;1.83;1.50;;;23.60;46.60;;;;;;5097607;28;20459;-88
2024/01/21 11:36:33;;;;;;;2.23;1.40;;;23.60;46.70;;;;;;5090616;28;20483;-89
2024/01/21 11:39:00;;;;;;;1.90;1.50;;;23.50;46.60;;;;;;5077250;28;20923;-90
2024/01/21 11:41:38;;;;;;;2.20;1.40;;;23.50;46.80;;;;;;5077391;28;20501;-91
2024/01/21 11:44:15;;;;;;;2.00;1.40;;;23.50;46.80;;;;;;5086441;28;20437;-89
2024/01/21 11:46:44;;;;;;;2.57;1.80;;;23.50;46.80;;;;;;5076032;28;20439;-89
2024/01/21 11:49:11;;;;;;;2.20;1.40;;;23.50;46.80;;;;;;5075606;28;20448;-89
2024/01/21 11:51:39;;;;;;;1.90;1.60;;;23.50;46.80;;;;;;5075264;28;20445;-91
2024/01/21 11:54:07;;;;;;;2.13;1.63;;;23.50;46.90;;;;;;5075181;28;20443;-89
2024/01/21 11:56:35;;;;;;;2.10;1.50;;;23.50;46.90;;;;;;5076260;28;20499;-90
2024/01/21 11:59:01;;;;;;;2.50;1.60;;;23.50;46.90;;;;;;5075265;28;20533;-89
2024/01/21 12:01:30;;;;;;;1.60;1.33;;;23.50;46.90;;;;;;5075306;28;20464;-89
2024/01/21 12:04:00;;;;;;;2.00;1.40;;;23.50;46.90;;;;;;5075751;28;21000;-88
2024/01/21 12:06:28;;;;;;;2.20;1.47;;;23.50;46.90;;;;;;5074952;28;20432;-88
2024/01/21 12:08:55;;;;;;;2.10;1.57;;;23.60;47.00;;;;;;5075248;28;20448;-88
2024/01/21 12:11:22;;;;;;;2.43;1.40;;;23.50;46.90;;;;;;5075213;28;20441;-89
2024/01/21 12:13:51;;;;;;;2.10;1.40;;;23.50;47.20;;;;;;5082862;28;20491;-90
2024/01/21 12:16:18;;;;;;;1.70;1.30;;;23.60;47.00;;;;;;5095669;28;20476;-87
2024/01/21 12:18:48;;;;;;;1.80;1.30;;;23.60;47.00;;;;;;5095933;28;20515;-88
2024/01/21 12:21:17;;;;;;;2.07;1.20;;;23.60;47.00;;;;;;5074961;28;20953;-87
2024/01/21 12:23:45;;;;;;;2.10;1.40;;;23.60;46.90;;;;;;5075768;28;20468;-89
2024/01/21 12:26:16;;;;;;;1.90;1.40;;;23.60;47.00;;;;;;5075812;28;20868;-88
2024/01/21 12:28:55;;;;;;;1.70;1.20;;;23.60;47.00;;;;;;5074825;28;20440;-90
2024/01/21 12:31:22;;;;;;;1.80;1.37;;;23.60;47.00;;;;;;5074277;28;20480;-89
2024/01/21 12:33:50;;;;;;;1.90;1.37;;;23.60;47.00;;;;;;5074657;28;20946;-89
2024/01/21 12:36:18;;;;;;;2.03;1.40;;;23.60;47.00;;;;;;5074311;28;20492;-88
2024/01/21 12:38:45;;;;;;;2.60;1.63;;;23.60;47.00;;;;;;5074416;28;20447;-88
2024/01/21 12:41:12;;;;;;;1.93;1.30;;;23.60;47.00;;;;;;5075868;28;20535;-89
2024/01/21 12:43:39;;;;;;;1.70;1.30;;;23.60;47.00;;;;;;5074389;28;21010;-88
2024/01/21 12:46:06;;;;;;;2.00;1.30;;;23.60;47.00;;;;;;5074265;28;20470;-87
2024/01/21 12:48:33;;;;;;;2.00;1.73;;;23.60;47.10;;;;;;5075600;28;20858;-88
2024/01/21 12:51:00;;;;;;;1.90;1.50;;;23.60;47.10;;;;;;5076848;28;20447;-90